< < Back
Terminal Aerodrome Forecast


Current Version              Previous Versions:   1  2  3  4  5  6  7  8  9  

Terminal Aerodrome Forecast

192
FTUS44 KBMX 250520
TAFTCL
TAF
KTCL 250520Z 2506/2606 00000KT P6SM SCT250
     FM251400 31006KT P6SM SCT050
     FM260000 02004KT P6SM SCT250=

Latest METAR

888
SAUS70 KWBC 260400 RRD
MTRTCL
METAR KTCL 260353Z AUTO 00000KT 10SM CLR 26/23 A3008 RMK AO2 SLP182
T02610233


USA.gov is the U.S. government's official web portal to all federal, state and local government web resources and services.